createdAt,value
2019-05-26T00:01:34.306Z,9.20
2019-05-26T00:04:04.574Z,9.37
2019-05-26T00:06:34.971Z,9.23
2019-05-26T00:09:06.339Z,9.90
2019-05-26T00:11:36.784Z,9.37
2019-05-26T00:14:06.876Z,10.10
2019-05-26T00:16:36.938Z,9.50
2019-05-26T00:19:07.055Z,9.10
2019-05-26T00:21:37.431Z,9.80
2019-05-26T00:24:07.268Z,8.90
2019-05-26T00:26:37.302Z,10.20
2019-05-26T00:29:07.496Z,10.73
2019-05-26T00:31:37.906Z,12.00
2019-05-26T00:34:08.320Z,11.13
2019-05-26T00:36:38.407Z,8.97
2019-05-26T00:39:08.626Z,9.23
2019-05-26T00:41:38.833Z,9.70
2019-05-26T00:44:08.948Z,9.70
2019-05-26T00:46:38.788Z,10.33
2019-05-26T00:49:08.926Z,10.83
2019-05-26T00:51:39.344Z,9.70
2019-05-26T00:54:09.578Z,10.23
2019-05-26T00:56:39.427Z,10.80
2019-05-26T00:59:09.262Z,9.23
2019-05-26T01:01:39.330Z,9.87
2019-05-26T01:04:09.185Z,10.23
2019-05-26T01:06:39.121Z,10.50
2019-05-26T01:09:28.090Z,11.23
2019-05-26T01:11:57.998Z,12.43
2019-05-26T01:14:27.841Z,9.27
2019-05-26T01:16:57.704Z,10.33
2019-05-26T01:19:27.581Z,10.70
2019-05-26T01:21:57.671Z,11.20
2019-05-26T01:24:27.587Z,11.37
2019-05-26T01:26:57.409Z,11.90
2019-05-26T01:29:27.529Z,10.57
2019-05-26T01:31:57.947Z,10.83
2019-05-26T01:34:27.815Z,11.27
2019-05-26T01:36:57.923Z,10.13
2019-05-26T01:39:28.392Z,11.37
2019-05-26T01:41:58.669Z,10.33
2019-05-26T01:44:29.451Z,10.80
2019-05-26T01:46:59.823Z,10.20
2019-05-26T01:49:29.939Z,10.93
2019-05-26T01:52:00.104Z,9.50
2019-05-26T01:54:30.622Z,11.67
2019-05-26T01:57:00.760Z,10.77
2019-05-26T01:59:31.154Z,10.77
2019-05-26T02:02:01.038Z,10.80
2019-05-26T02:04:31.231Z,10.50
2019-05-26T02:07:01.657Z,10.20
2019-05-26T02:09:31.946Z,10.33
2019-05-26T02:12:01.868Z,9.30
2019-05-26T02:14:32.104Z,9.63
2019-05-26T02:17:02.262Z,10.40
2019-05-26T02:19:32.126Z,9.93
2019-05-26T02:22:02.323Z,9.70
2019-05-26T02:24:32.402Z,10.23
2019-05-26T02:27:02.818Z,9.47
2019-05-26T02:29:33.239Z,9.90
2019-05-26T02:32:03.343Z,10.63
2019-05-26T02:34:33.331Z,9.80
2019-05-26T02:37:05.498Z,10.57
2019-05-26T02:39:35.454Z,10.43
2019-05-26T02:42:05.640Z,10.30
2019-05-26T02:44:37.588Z,11.30
2019-05-26T02:47:07.467Z,10.33
2019-05-26T02:49:37.443Z,11.73
2019-05-26T02:52:07.275Z,10.07
2019-05-26T02:54:37.152Z,9.80
2019-05-26T02:57:08.872Z,10.93
2019-05-26T02:59:38.511Z,10.50
2019-05-26T03:02:08.426Z,10.33
2019-05-26T03:04:39.593Z,11.47
2019-05-26T03:07:09.731Z,11.20
2019-05-26T03:09:42.707Z,10.80
2019-05-26T03:12:12.560Z,11.90
2019-05-26T03:14:44.006Z,11.30
2019-05-26T03:17:15.648Z,11.43
2019-05-26T03:19:48.791Z,11.17
2019-05-26T03:22:21.808Z,10.70
2019-05-26T03:24:54.204Z,11.13
2019-05-26T03:27:24.063Z,11.03
2019-05-26T03:29:53.827Z,11.47
2019-05-26T03:32:24.098Z,12.03
2019-05-26T03:34:54.751Z,11.13
2019-05-26T03:37:24.665Z,11.00
2019-05-26T03:39:54.476Z,10.30
2019-05-26T03:42:24.526Z,9.80
2019-05-26T03:44:54.614Z,9.93
2019-05-26T03:47:24.635Z,11.33
2019-05-26T03:49:54.771Z,10.83
2019-05-26T03:52:24.552Z,11.10
2019-05-26T03:54:54.324Z,10.00
2019-05-26T03:57:24.209Z,10.17
2019-05-26T03:59:57.084Z,10.20
2019-05-26T04:02:27.634Z,8.80
2019-05-26T04:04:57.475Z,9.50
2019-05-26T04:07:27.687Z,8.90
2019-05-26T04:10:05.630Z,9.50
2019-05-26T04:12:30.132Z,9.57
2019-05-26T04:15:00.325Z,10.27
2019-05-26T04:17:30.243Z,9.20
2019-05-26T04:20:00.594Z,9.77
2019-05-26T04:22:30.717Z,9.60
2019-05-26T04:25:00.471Z,11.03
2019-05-26T04:30:59.785Z,10.27
2019-05-26T04:33:29.427Z,10.27
2019-05-26T04:35:59.110Z,10.50
2019-05-26T04:38:28.877Z,9.77
2019-05-26T04:40:58.596Z,10.20
2019-05-26T04:43:28.216Z,10.20
2019-05-26T04:45:57.845Z,9.33
2019-05-26T04:48:27.692Z,9.30
2019-05-26T04:50:57.384Z,8.93
2019-05-26T04:53:27.438Z,9.40
2019-05-26T04:55:57.802Z,9.70
2019-05-26T04:58:28.199Z,10.20
2019-05-26T05:00:58.612Z,9.20
2019-05-26T05:03:29.010Z,9.30
2019-05-26T05:05:59.056Z,9.30
2019-05-26T05:08:28.860Z,9.20
2019-05-26T05:10:59.002Z,9.33
2019-05-26T05:13:29.623Z,8.80
2019-05-26T05:15:59.571Z,8.17
2019-05-26T05:18:29.278Z,8.60
2019-05-26T05:20:58.981Z,8.10
2019-05-26T05:23:28.673Z,8.07
2019-05-26T05:25:58.340Z,10.50
2019-05-26T05:28:28.190Z,7.20
2019-05-26T05:30:58.026Z,7.07
2019-05-26T05:33:27.866Z,7.03
2019-05-26T05:35:57.913Z,6.80
2019-05-26T05:38:27.770Z,6.80
2019-05-26T05:40:59.791Z,7.40
2019-05-26T05:43:29.161Z,7.17
2019-05-26T05:45:59.017Z,7.27
2019-05-26T05:48:28.896Z,6.30
2019-05-26T05:50:58.794Z,6.40
2019-05-26T05:53:29.031Z,6.90
2019-05-26T05:55:58.797Z,7.30
2019-05-26T05:58:28.651Z,6.40
2019-05-26T06:00:58.555Z,6.53
2019-05-26T06:03:28.410Z,6.53
2019-05-26T06:05:58.387Z,6.53
2019-05-26T06:08:28.471Z,5.67
2019-05-26T06:11:15.016Z,6.57
2019-05-26T06:13:30.115Z,6.13
2019-05-26T06:16:25.863Z,5.10
2019-05-26T06:18:56.019Z,5.70
2019-05-26T06:21:26.295Z,6.20
2019-05-26T06:23:56.733Z,5.40
2019-05-26T06:26:26.864Z,5.60
2019-05-26T06:29:00.463Z,5.53
2019-05-26T06:31:30.844Z,6.40
2019-05-26T06:34:01.372Z,6.50
2019-05-26T06:36:31.543Z,6.70
2019-05-26T06:39:02.149Z,7.40
2019-05-26T06:41:33.762Z,6.20
2019-05-26T06:44:03.896Z,6.20
2019-05-26T06:46:34.029Z,4.90
2019-05-26T06:49:04.277Z,5.00
2019-05-26T06:51:34.115Z,4.63
2019-05-26T06:54:03.968Z,4.27
2019-05-26T06:56:34.085Z,4.80
2019-05-26T06:59:04.338Z,5.47
2019-05-26T07:01:34.449Z,5.03
2019-05-26T07:04:04.326Z,4.63
2019-05-26T07:06:34.686Z,5.20
2019-05-26T07:09:07.118Z,5.50
2019-05-26T07:11:54.036Z,5.47
2019-05-26T07:14:10.505Z,5.50
2019-05-26T07:16:40.891Z,5.63
2019-05-26T07:19:11.556Z,4.60
2019-05-26T07:21:41.587Z,5.00
2019-05-26T07:24:12.003Z,5.20
2019-05-26T07:26:42.454Z,5.43
2019-05-26T07:29:12.615Z,4.50
2019-05-26T07:31:42.938Z,4.03
2019-05-26T07:34:13.347Z,4.77
2019-05-26T07:36:43.451Z,5.27
2019-05-26T07:39:13.227Z,4.93
2019-05-26T07:41:43.057Z,4.97
2019-05-26T07:44:13.463Z,5.37
2019-05-26T07:46:43.212Z,4.67
2019-05-26T07:49:13.246Z,5.67
2019-05-26T07:51:43.088Z,5.10
2019-05-26T07:54:25.117Z,5.00
2019-05-26T07:56:44.383Z,5.50
2019-05-26T07:59:14.225Z,5.13
2019-05-26T08:01:44.074Z,5.70
2019-05-26T08:04:15.355Z,4.77
2019-05-26T08:06:49.122Z,5.33
2019-05-26T08:09:18.916Z,5.60
2019-05-26T08:11:48.748Z,4.40
2019-05-26T08:14:20.262Z,4.80
2019-05-26T08:16:50.249Z,5.03
2019-05-26T08:19:20.194Z,4.40
2019-05-26T08:21:50.121Z,4.20
2019-05-26T08:24:21.622Z,4.50
2019-05-26T08:26:53.846Z,4.13
2019-05-26T08:29:26.434Z,4.67
2019-05-26T08:32:00.043Z,4.00
2019-05-26T08:34:32.173Z,4.20
2019-05-26T08:37:02.389Z,4.10
2019-05-26T08:39:33.403Z,4.73
2019-05-26T08:42:04.275Z,3.47
2019-05-26T08:44:34.271Z,3.93
2019-05-26T08:47:04.489Z,4.60
2019-05-26T08:49:34.812Z,3.50
2019-05-26T08:52:04.661Z,3.67
2019-05-26T08:54:34.539Z,3.40
2019-05-26T08:57:04.671Z,4.03
2019-05-26T08:59:35.142Z,3.70
2019-05-26T09:02:05.079Z,3.60
2019-05-26T09:04:35.371Z,3.00
2019-05-26T09:07:05.935Z,3.47
2019-05-26T09:09:36.363Z,3.27
2019-05-26T09:12:07.183Z,3.40
2019-05-26T09:14:37.691Z,3.03
2019-05-26T09:17:08.562Z,3.43
2019-05-26T09:19:39.222Z,3.23
2019-05-26T09:22:09.676Z,3.10
2019-05-26T09:24:39.765Z,3.10
2019-05-26T09:27:09.609Z,3.60
2019-05-26T09:29:39.757Z,3.43
2019-05-26T09:32:10.626Z,3.17
2019-05-26T09:34:40.823Z,3.37
2019-05-26T09:37:11.003Z,3.10
2019-05-26T09:39:41.379Z,3.40
2019-05-26T09:42:11.575Z,6.23
2019-05-26T09:44:41.966Z,4.87
2019-05-26T09:47:12.083Z,3.40
2019-05-26T09:49:42.654Z,3.00
2019-05-26T09:52:12.770Z,3.03
2019-05-26T09:54:42.524Z,2.33
2019-05-26T09:57:13.191Z,2.67
2019-05-26T09:59:43.841Z,2.60
2019-05-26T10:02:14.062Z,2.50
2019-05-26T10:04:44.166Z,2.47
2019-05-26T10:07:15.919Z,2.47
2019-05-26T10:15:24.119Z,2.27
2019-05-26T10:17:54.243Z,3.07
2019-05-26T10:20:24.382Z,5.20
2019-05-26T10:22:54.266Z,4.00
2019-05-26T10:25:24.672Z,2.50
2019-05-26T10:27:54.772Z,1.80
2019-05-26T10:30:24.890Z,2.40
2019-05-26T10:32:55.020Z,2.23
2019-05-26T10:35:24.907Z,34.47
2019-05-26T10:37:55.097Z,2.13
2019-05-26T10:40:24.943Z,1.80
2019-05-26T10:42:54.819Z,3.20
2019-05-26T10:45:24.922Z,8.60
2019-05-26T10:47:54.788Z,2.50
2019-05-26T10:50:24.878Z,2.50
2019-05-26T10:52:55.003Z,2.40
2019-05-26T10:55:25.076Z,2.90
2019-05-26T11:00:44.297Z,4.50
2019-05-26T11:03:14.382Z,4.00
2019-05-26T11:05:44.823Z,3.50
2019-05-26T11:08:15.119Z,3.27
2019-05-26T11:10:45.239Z,3.57
2019-05-26T11:13:15.706Z,3.03
2019-05-26T11:18:35.149Z,2.73
2019-05-26T11:21:05.484Z,2.50
2019-05-26T11:23:35.638Z,2.50
2019-05-26T11:26:05.707Z,2.80
2019-05-26T11:28:35.899Z,3.10
2019-05-26T11:31:06.022Z,3.00
2019-05-26T11:33:35.890Z,2.87
2019-05-26T11:36:08.824Z,2.60
2019-05-26T11:38:38.711Z,2.63
2019-05-26T11:41:08.577Z,2.60
2019-05-26T11:43:38.495Z,2.47
2019-05-26T11:46:08.341Z,2.30
2019-05-26T11:48:39.249Z,2.63
2019-05-26T11:51:09.848Z,3.40
2019-05-26T11:53:46.372Z,3.03
2019-05-26T11:56:16.046Z,2.80
2019-05-26T11:58:45.837Z,3.13
2019-05-26T12:01:15.785Z,3.07
2019-05-26T12:03:46.047Z,2.83
2019-05-26T12:06:16.225Z,2.80
2019-05-26T12:08:46.567Z,2.57
2019-05-26T12:11:16.538Z,2.83
2019-05-26T12:13:46.527Z,2.73
2019-05-26T12:16:17.536Z,2.40
2019-05-26T12:18:48.433Z,2.50
2019-05-26T12:21:18.688Z,2.47
2019-05-26T12:23:49.070Z,2.53
2019-05-26T12:26:18.945Z,2.57
2019-05-26T12:28:48.886Z,2.20
2019-05-26T12:34:12.486Z,2.20
2019-05-26T12:36:43.299Z,1.80
2019-05-26T12:39:13.387Z,2.10
2019-05-26T12:41:43.647Z,2.10
2019-05-26T12:44:13.934Z,2.30
2019-05-26T12:46:44.219Z,2.00
2019-05-26T12:49:14.422Z,2.00
2019-05-26T12:51:44.271Z,1.87
2019-05-26T12:54:14.207Z,1.90
2019-05-26T12:56:44.095Z,2.07
2019-05-26T12:59:13.969Z,2.43
2019-05-26T13:01:43.798Z,2.30
2019-05-26T13:04:13.670Z,2.30
2019-05-26T13:06:43.782Z,1.90
2019-05-26T13:09:13.854Z,1.97
2019-05-26T13:11:43.974Z,1.80
2019-05-26T13:14:14.298Z,4.77
2019-05-26T13:16:44.134Z,1.97
2019-05-26T13:19:13.994Z,3.43
2019-05-26T13:21:43.850Z,1.73
2019-05-26T13:24:13.731Z,3.50
2019-05-26T13:26:43.834Z,1.77
2019-05-26T13:29:13.627Z,1.73
2019-05-26T13:31:43.974Z,2.27
2019-05-26T13:34:14.319Z,2.27
2019-05-26T13:36:44.507Z,2.30
2019-05-26T13:39:15.224Z,2.07
2019-05-26T13:41:45.767Z,1.70
2019-05-26T13:44:15.674Z,2.40
2019-05-26T13:46:45.571Z,1.77
2019-05-26T13:49:15.443Z,1.73
2019-05-26T13:51:50.206Z,1.97
2019-05-26T13:54:18.383Z,2.10
2019-05-26T13:56:48.139Z,1.67
2019-05-26T13:59:17.998Z,1.77
2019-05-26T14:01:50.720Z,1.97
2019-05-26T14:04:23.191Z,1.90
2019-05-26T14:06:53.013Z,1.30
2019-05-26T14:09:23.054Z,1.50
2019-05-26T14:11:52.951Z,1.77
2019-05-26T14:14:22.956Z,1.80
2019-05-26T14:16:54.682Z,1.60
2019-05-26T14:19:27.425Z,1.43
2019-05-26T14:21:57.298Z,2.20
2019-05-26T14:24:27.172Z,1.30
2019-05-26T14:26:57.179Z,1.67
2019-05-26T14:29:27.188Z,2.07
2019-05-26T14:31:57.014Z,2.00
2019-05-26T14:34:26.898Z,1.80
2019-05-26T14:36:57.006Z,1.70
2019-05-26T14:39:26.865Z,1.70
2019-05-26T14:41:56.718Z,1.60
2019-05-26T14:44:27.096Z,1.80
2019-05-26T14:46:56.994Z,1.50
2019-05-26T14:49:27.359Z,1.60
2019-05-26T14:51:57.642Z,2.63
2019-05-26T14:54:29.022Z,2.03
2019-05-26T14:56:58.737Z,2.00
2019-05-26T14:59:28.667Z,1.50
2019-05-26T15:01:58.509Z,1.90
2019-05-26T15:04:31.080Z,1.80
2019-05-26T15:07:00.092Z,2.10
2019-05-26T15:09:29.996Z,2.00
2019-05-26T15:11:59.878Z,1.50
2019-05-26T15:14:29.810Z,1.70
2019-05-26T15:17:00.006Z,1.53
2019-05-26T15:19:29.859Z,1.70
2019-05-26T15:21:59.836Z,1.90
2019-05-26T15:24:31.722Z,1.60
2019-05-26T15:27:01.724Z,1.93
2019-05-26T15:29:31.571Z,2.30
2019-05-26T15:32:03.041Z,2.50
2019-05-26T15:34:33.259Z,2.00
2019-05-26T15:37:03.186Z,1.90
2019-05-26T15:39:33.082Z,2.00
2019-05-26T15:42:03.739Z,2.00
2019-05-26T15:44:33.637Z,2.03
2019-05-26T15:47:04.008Z,2.47
2019-05-26T15:49:34.834Z,2.70
2019-05-26T15:52:04.777Z,2.30
2019-05-26T15:54:34.922Z,2.57
2019-05-26T15:57:05.074Z,2.50
2019-05-26T15:59:35.292Z,2.10
2019-05-26T16:02:05.574Z,2.00
2019-05-26T16:04:35.948Z,2.10
2019-05-26T16:07:06.743Z,2.10
2019-05-26T16:09:37.184Z,2.57
2019-05-26T16:12:07.475Z,1.83
2019-05-26T16:14:38.104Z,1.90
2019-05-26T16:17:08.518Z,2.50
2019-05-26T16:19:38.886Z,2.23
2019-05-26T16:22:09.047Z,2.30
2019-05-26T16:24:39.122Z,2.63
2019-05-26T16:27:18.852Z,2.50
2019-05-26T16:29:40.974Z,2.30
2019-05-26T16:32:11.214Z,2.20
2019-05-26T16:34:41.495Z,2.00
2019-05-26T16:53:45.865Z,2.33
2019-05-26T16:56:17.998Z,2.77
2019-05-26T16:58:47.830Z,2.30
2019-05-26T17:01:18.252Z,2.53
2019-05-26T17:03:48.623Z,2.63
2019-05-26T17:06:18.491Z,2.40
2019-05-26T17:08:48.398Z,10.83
2019-05-26T17:11:18.274Z,2.70
2019-05-26T17:13:48.527Z,2.17
2019-05-26T17:16:18.432Z,2.07
2019-05-26T17:18:48.387Z,2.60
2019-05-26T17:21:18.415Z,2.20
2019-05-26T17:23:48.326Z,2.40
2019-05-26T17:26:18.217Z,2.30
2019-05-26T17:28:49.775Z,2.40
2019-05-26T17:34:20.726Z,2.87
2019-05-26T17:36:50.599Z,2.50
2019-05-26T17:39:20.555Z,2.10
2019-05-26T17:41:50.972Z,2.30
2019-05-26T17:44:22.056Z,2.83
2019-05-26T17:46:52.323Z,2.30
2019-05-26T17:49:22.714Z,2.20
2019-05-26T17:51:52.848Z,1.90
2019-05-26T17:54:23.285Z,2.33
2019-05-26T17:56:53.733Z,2.40
2019-05-26T17:59:24.631Z,2.27
2019-05-26T18:01:54.513Z,2.07
2019-05-26T18:04:25.642Z,2.10
2019-05-26T18:06:55.626Z,2.03
2019-05-26T18:09:26.251Z,2.60
2019-05-26T18:11:56.382Z,2.23
2019-05-26T18:14:27.106Z,2.50
2019-05-26T18:16:58.011Z,3.90
2019-05-26T18:19:29.833Z,3.00
2019-05-26T18:22:00.600Z,2.60
2019-05-26T18:24:31.043Z,3.00
2019-05-26T18:27:00.910Z,2.90
2019-05-26T18:29:30.792Z,3.17
2019-05-26T18:32:00.723Z,3.03
2019-05-26T18:34:30.690Z,3.60
2019-05-26T18:37:00.552Z,3.20
2019-05-26T18:39:31.455Z,2.53
2019-05-26T18:42:03.303Z,3.53
2019-05-26T18:50:17.819Z,3.47
2019-05-26T18:52:47.758Z,3.20
2019-05-26T18:55:17.647Z,2.73
2019-05-26T18:57:49.202Z,2.13
2019-05-26T19:00:20.118Z,3.00
2019-05-26T19:02:51.078Z,2.83
2019-05-26T19:05:32.884Z,2.70
2019-05-26T19:07:53.584Z,2.33
2019-05-26T19:10:28.739Z,2.27
2019-05-26T19:13:18.278Z,2.80
2019-05-26T19:15:48.394Z,2.50
2019-05-26T19:18:20.298Z,2.50
2019-05-26T19:20:49.809Z,2.60
2019-05-26T19:23:19.967Z,2.20
2019-05-26T19:25:52.795Z,2.00
2019-05-26T19:28:22.562Z,2.50
2019-05-26T19:30:52.462Z,3.73
2019-05-26T19:33:22.358Z,3.10
2019-05-26T19:35:52.492Z,3.07
2019-05-26T19:38:22.412Z,2.83
2019-05-26T19:40:53.733Z,3.30
2019-05-26T19:43:23.711Z,3.40
2019-05-26T19:45:53.926Z,2.70
2019-05-26T19:48:35.525Z,3.17
2019-05-26T19:50:55.546Z,3.00
2019-05-26T19:53:25.631Z,4.37
2019-05-26T19:55:55.861Z,2.70
2019-05-26T19:58:28.515Z,2.60
2019-05-26T20:00:58.622Z,2.73
2019-05-26T20:03:28.578Z,2.80
2019-05-26T20:05:59.063Z,3.43
2019-05-26T20:08:29.306Z,3.10
2019-05-26T20:11:00.490Z,3.27
2019-05-26T20:13:31.014Z,2.90
2019-05-26T20:16:00.915Z,3.07
2019-05-26T20:18:31.383Z,3.00
2019-05-26T20:21:01.888Z,2.97
2019-05-26T20:23:35.679Z,3.00
2019-05-26T20:26:04.745Z,3.80
2019-05-26T20:28:34.987Z,3.17
2019-05-26T20:31:05.242Z,3.30
2019-05-26T20:33:35.622Z,3.00
2019-05-26T20:36:05.886Z,3.10
2019-05-26T20:38:36.587Z,3.30
2019-05-26T20:41:07.098Z,3.40
2019-05-26T20:43:37.486Z,3.10
2019-05-26T20:46:07.903Z,3.70
2019-05-26T20:48:38.424Z,3.33
2019-05-26T20:51:08.695Z,3.70
2019-05-26T20:53:40.633Z,3.60
2019-05-26T20:56:10.427Z,3.50
2019-05-26T20:58:40.545Z,3.60
2019-05-26T21:01:29.604Z,3.07
2019-05-26T21:03:59.997Z,3.47
2019-05-26T21:06:29.820Z,3.30
2019-05-26T21:09:03.798Z,3.43
2019-05-26T21:11:34.254Z,3.97
2019-05-26T21:14:04.129Z,3.83
2019-05-26T21:16:34.263Z,3.93
2019-05-26T21:19:04.483Z,3.70
2019-05-26T21:21:34.332Z,4.03
2019-05-26T21:24:04.179Z,4.10
2019-05-26T21:26:34.030Z,3.60
2019-05-26T21:29:03.961Z,4.00
2019-05-26T21:31:33.795Z,3.67
2019-05-26T21:34:03.677Z,3.93
2019-05-26T21:36:33.787Z,3.07
2019-05-26T21:39:05.386Z,3.90
2019-05-26T21:41:35.243Z,3.80
2019-05-26T21:44:05.282Z,3.47
2019-05-26T21:46:35.146Z,3.53
2019-05-26T21:49:05.008Z,3.73
2019-05-26T21:51:34.841Z,3.13
2019-05-26T21:54:04.686Z,3.50
2019-05-26T21:56:35.082Z,3.30
2019-05-26T21:59:04.930Z,3.30
2019-05-26T22:01:35.745Z,3.70
2019-05-26T22:04:06.124Z,3.60
2019-05-26T22:06:36.096Z,3.70
2019-05-26T22:09:07.635Z,3.67
2019-05-26T22:11:37.774Z,3.63
2019-05-26T22:14:07.886Z,3.10
2019-05-26T22:16:38.055Z,4.37
2019-05-26T22:19:07.899Z,4.20
2019-05-26T22:21:38.670Z,4.00
2019-05-26T22:24:09.401Z,4.30
2019-05-26T22:26:39.656Z,4.23
2019-05-26T22:29:09.860Z,4.17
2019-05-26T22:31:40.265Z,4.70
2019-05-26T22:34:10.614Z,4.30
2019-05-26T22:36:41.256Z,3.97
2019-05-26T22:39:11.177Z,3.30
2019-05-26T22:41:41.941Z,4.00
2019-05-26T22:44:12.034Z,3.63
2019-05-26T22:46:42.439Z,3.80
2019-05-26T22:49:13.176Z,3.40
2019-05-26T22:51:43.294Z,3.70
2019-05-26T22:54:13.326Z,3.97
2019-05-26T22:56:43.176Z,3.73
2019-05-26T22:59:13.039Z,3.57
2019-05-26T23:01:42.894Z,3.73
2019-05-26T23:04:12.821Z,3.93
2019-05-26T23:06:42.593Z,4.30
2019-05-26T23:09:12.430Z,3.93
2019-05-26T23:11:42.220Z,4.20
2019-05-26T23:14:12.118Z,3.97
2019-05-26T23:16:41.942Z,4.20
2019-05-26T23:19:19.300Z,3.97
2019-05-26T23:21:43.334Z,4.73
2019-05-26T23:24:13.454Z,4.27
2019-05-26T23:26:44.113Z,4.33
2019-05-26T23:29:15.058Z,4.37
2019-05-26T23:31:45.616Z,4.47
2019-05-26T23:34:16.014Z,4.00
2019-05-26T23:36:46.391Z,4.23
2019-05-26T23:39:16.855Z,4.43
2019-05-26T23:41:47.605Z,4.10
2019-05-26T23:44:17.767Z,3.80
2019-05-26T23:46:48.657Z,4.10
2019-05-26T23:49:19.128Z,4.37
2019-05-26T23:51:49.895Z,4.27
2019-05-26T23:54:20.272Z,3.90
2019-05-26T23:56:50.922Z,4.93
2019-05-26T23:59:21.720Z,4.70
